sensor_id;sensor_type;location;lat;lon;timestamp;pressure;altitude;pressure_sealevel;temperature;humidity
28448;BME280;15675;52.870;-1.416;2023-05-01T00:02:09;101128.00;;;13.60;100.00
28448;BME280;15675;52.870;-1.416;2023-05-01T00:04:35;101123.59;;;13.79;100.00
28448;BME280;15675;52.870;-1.416;2023-05-01T00:07:01;101126.19;;;13.80;100.00
28448;BME280;15675;52.870;-1.416;2023-05-01T00:09:27;101127.06;;;13.87;100.00
28448;BME280;15675;52.870;-1.416;2023-05-01T00:11:52;101127.03;;;13.92;100.00
28448;BME280;15675;52.870;-1.416;2023-05-01T00:14:18;101124.50;;;13.72;100.00
28448;BME280;15675;52.870;-1.416;2023-05-01T00:16:44;101124.47;;;13.79;100.00
28448;BME280;15675;52.870;-1.416;2023-05-01T00:19:11;101108.00;;;13.59;100.00
28448;BME280;15675;52.870;-1.416;2023-05-01T00:21:37;101110.59;;;13.65;100.00
28448;BME280;15675;52.870;-1.416;2023-05-01T00:24:02;101107.16;;;13.27;100.00
28448;BME280;15675;52.870;-1.416;2023-05-01T00:26:28;101107.09;;;13.77;100.00
28448;BME280;15675;52.870;-1.416;2023-05-01T00:28:56;101111.41;;;13.79;100.00
28448;BME280;15675;52.870;-1.416;2023-05-01T00:31:25;101104.44;;;13.85;100.00
28448;BME280;15675;52.870;-1.416;2023-05-01T00:33:51;101103.53;;;13.96;100.00
28448;BME280;15675;52.870;-1.416;2023-05-01T00:36:16;101106.16;;;13.92;100.00
28448;BME280;15675;52.870;-1.416;2023-05-01T00:38:42;101101.81;;;13.88;100.00
28448;BME280;15675;52.870;-1.416;2023-05-01T00:41:07;101093.09;;;13.95;100.00
28448;BME280;15675;52.870;-1.416;2023-05-01T00:43:33;101094.88;;;13.90;100.00
28448;BME280;15675;52.870;-1.416;2023-05-01T00:45:59;101081.88;;;13.76;100.00
28448;BME280;15675;52.870;-1.416;2023-05-01T00:48:25;101085.31;;;13.79;100.00
28448;BME280;15675;52.870;-1.416;2023-05-01T00:50:52;101081.84;;;13.84;100.00
28448;BME280;15675;52.870;-1.416;2023-05-01T00:53:19;101080.97;;;13.83;100.00
28448;BME280;15675;52.870;-1.416;2023-05-01T00:55:44;101084.53;;;13.59;100.00
28448;BME280;15675;52.870;-1.416;2023-05-01T00:58:11;101077.63;;;13.45;100.00
28448;BME280;15675;52.870;-1.416;2023-05-01T01:00:37;101074.03;;;13.80;100.00
28448;BME280;15675;52.870;-1.416;2023-05-01T01:03:03;101078.44;;;13.64;100.00
28448;BME280;15675;52.870;-1.416;2023-05-01T01:05:31;101072.34;;;13.67;100.00
28448;BME280;15675;52.870;-1.416;2023-05-01T01:08:20;101075.88;;;13.57;100.00
28448;BME280;15675;52.870;-1.416;2023-05-01T01:10:54;101080.16;;;13.69;100.00
28448;BME280;15675;52.870;-1.416;2023-05-01T01:13:38;101075.81;;;13.74;100.00
28448;BME280;15675;52.870;-1.416;2023-05-01T01:21:43;101071.41;;;13.90;100.00
28448;BME280;15675;52.870;-1.416;2023-05-01T01:24:25;101068.03;;;13.57;100.00
28448;BME280;15675;52.870;-1.416;2023-05-01T01:34:51;101065.34;;;13.77;100.00
28448;BME280;15675;52.870;-1.416;2023-05-01T01:37:27;101059.19;;;13.93;100.00
28448;BME280;15675;52.870;-1.416;2023-05-01T01:40:00;101051.50;;;13.66;100.00
28448;BME280;15675;52.870;-1.416;2023-05-01T01:42:50;101048.13;;;13.06;100.00
28448;BME280;15675;52.870;-1.416;2023-05-01T01:45:29;101047.22;;;13.35;100.00
28448;BME280;15675;52.870;-1.416;2023-05-01T01:47:58;101053.31;;;13.25;100.00
28448;BME280;15675;52.870;-1.416;2023-05-01T01:50:26;101043.78;;;13.11;100.00
28448;BME280;15675;52.870;-1.416;2023-05-01T01:52:53;101036.84;;;12.89;100.00
28448;BME280;15675;52.870;-1.416;2023-05-01T01:55:26;101029.03;;;12.93;100.00
28448;BME280;15675;52.870;-1.416;2023-05-01T01:57:54;101023.81;;;12.81;100.00
28448;BME280;15675;52.870;-1.416;2023-05-01T02:00:21;101027.31;;;12.48;100.00
28448;BME280;15675;52.870;-1.416;2023-05-01T02:02:48;101022.97;;;12.60;100.00
28448;BME280;15675;52.870;-1.416;2023-05-01T02:05:15;101013.41;;;12.61;100.00
28448;BME280;15675;52.870;-1.416;2023-05-01T02:07:45;101018.63;;;12.39;100.00
28448;BME280;15675;52.870;-1.416;2023-05-01T02:10:12;101023.78;;;12.21;100.00
28448;BME280;15675;52.870;-1.416;2023-05-01T02:12:39;101027.25;;;12.17;100.00
28448;BME280;15675;52.870;-1.416;2023-05-01T02:15:06;101020.34;;;12.45;100.00
28448;BME280;15675;52.870;-1.416;2023-05-01T02:17:35;101013.41;;;12.27;100.00
28448;BME280;15675;52.870;-1.416;2023-05-01T02:20:01;101027.28;;;12.31;100.00
28448;BME280;15675;52.870;-1.416;2023-05-01T02:22:29;101016.88;;;12.28;100.00
28448;BME280;15675;52.870;-1.416;2023-05-01T02:24:55;101013.41;;;12.41;100.00
28448;BME280;15675;52.870;-1.416;2023-05-01T02:27:27;101016.88;;;12.35;100.00
28448;BME280;15675;52.870;-1.416;2023-05-01T02:29:55;101022.09;;;12.31;100.00
28448;BME280;15675;52.870;-1.416;2023-05-01T02:32:22;101017.72;;;12.22;100.00
28448;BME280;15675;52.870;-1.416;2023-05-01T02:34:47;101009.03;;;12.15;100.00
28448;BME280;15675;52.870;-1.416;2023-05-01T02:37:14;101011.59;;;12.00;100.00
28448;BME280;15675;52.870;-1.416;2023-05-01T02:39:39;101017.69;;;12.08;100.00
28448;BME280;15675;52.870;-1.416;2023-05-01T02:42:07;101003.84;;;12.14;100.00
28448;BME280;15675;52.870;-1.416;2023-05-01T02:44:46;101007.28;;;12.13;100.00
28448;BME280;15675;52.870;-1.416;2023-05-01T02:47:16;101009.00;;;11.97;100.00
28448;BME280;15675;52.870;-1.416;2023-05-01T02:49:43;101011.63;;;12.12;100.00
28448;BME280;15675;52.870;-1.416;2023-05-01T02:52:13;101011.63;;;12.14;100.00
28448;BME280;15675;52.870;-1.416;2023-05-01T02:54:39;101007.31;;;12.17;100.00
28448;BME280;15675;52.870;-1.416;2023-05-01T02:57:05;101006.47;;;12.43;100.00
28448;BME280;15675;52.870;-1.416;2023-05-01T02:59:31;100999.53;;;12.47;100.00
28448;BME280;15675;52.870;-1.416;2023-05-01T03:01:58;100999.53;;;12.36;100.00
28448;BME280;15675;52.870;-1.416;2023-05-01T03:04:24;101000.38;;;12.24;100.00
28448;BME280;15675;52.870;-1.416;2023-05-01T03:06:50;100989.09;;;12.19;100.00
28448;BME280;15675;52.870;-1.416;2023-05-01T03:09:16;100989.97;;;12.10;100.00
28448;BME280;15675;52.870;-1.416;2023-05-01T03:11:41;100995.16;;;12.19;100.00
28448;BME280;15675;52.870;-1.416;2023-05-01T03:14:07;101001.22;;;12.17;100.00
28448;BME280;15675;52.870;-1.416;2023-05-01T03:16:33;100995.16;;;12.22;100.00
28448;BME280;15675;52.870;-1.416;2023-05-01T03:18:58;100993.44;;;12.24;100.00
28448;BME280;15675;52.870;-1.416;2023-05-01T03:21:24;100996.81;;;11.92;100.00
28448;BME280;15675;52.870;-1.416;2023-05-01T03:23:50;100995.13;;;12.04;100.00
28448;BME280;15675;52.870;-1.416;2023-05-01T03:26:15;100996.84;;;11.94;100.00
28448;BME280;15675;52.870;-1.416;2023-05-01T03:28:40;101000.25;;;11.87;100.00
28448;BME280;15675;52.870;-1.416;2023-05-01T03:31:06;101003.75;;;11.90;100.00
28448;BME280;15675;52.870;-1.416;2023-05-01T03:33:31;101001.06;;;11.63;100.00
28448;BME280;15675;52.870;-1.416;2023-05-01T03:36:01;101002.84;;;11.74;100.00
28448;BME280;15675;52.870;-1.416;2023-05-01T03:38:31;101005.41;;;11.67;100.00
28448;BME280;15675;52.870;-1.416;2023-05-01T03:40:57;101015.00;;;11.85;100.00
28448;BME280;15675;52.870;-1.416;2023-05-01T03:43:24;101013.25;;;11.78;100.00
28448;BME280;15675;52.870;-1.416;2023-05-01T03:45:50;101010.59;;;11.62;100.00
28448;BME280;15675;52.870;-1.416;2023-05-01T03:48:17;101011.34;;;11.38;100.00
28448;BME280;15675;52.870;-1.416;2023-05-01T03:50:43;101019.28;;;11.66;100.00
28448;BME280;15675;52.870;-1.416;2023-05-01T03:53:09;101018.41;;;11.68;100.00
28448;BME280;15675;52.870;-1.416;2023-05-01T03:55:34;101017.63;;;11.83;100.00
28448;BME280;15675;52.870;-1.416;2023-05-01T03:58:00;101012.41;;;11.89;100.00
28448;BME280;15675;52.870;-1.416;2023-05-01T04:00:26;101015.06;;;11.94;100.00
28448;BME280;15675;52.870;-1.416;2023-05-01T04:02:51;101013.34;;;11.95;100.00
28448;BME280;15675;52.870;-1.416;2023-05-01T04:05:17;101009.81;;;11.85;100.00
28448;BME280;15675;52.870;-1.416;2023-05-01T04:07:43;101002.94;;;12.02;100.00
28448;BME280;15675;52.870;-1.416;2023-05-01T04:10:09;101006.44;;;12.09;100.00
28448;BME280;15675;52.870;-1.416;2023-05-01T04:12:35;101004.69;;;12.13;100.00
28448;BME280;15675;52.870;-1.416;2023-05-01T04:15:00;101004.72;;;12.14;100.00
28448;BME280;15675;52.870;-1.416;2023-05-01T04:17:27;101008.13;;;11.95;100.00
28448;BME280;15675;52.870;-1.416;2023-05-01T04:19:53;101011.56;;;11.87;100.00
28448;BME280;15675;52.870;-1.416;2023-05-01T04:22:20;101013.19;;;11.65;100.00
28448;BME280;15675;52.870;-1.416;2023-05-01T04:24:46;101021.16;;;11.95;100.00
28448;BME280;15675;52.870;-1.416;2023-05-01T04:27:12;101020.16;;;11.66;100.00
28448;BME280;15675;52.870;-1.416;2023-05-01T04:29:37;101004.69;;;12.13;100.00
28448;BME280;15675;52.870;-1.416;2023-05-01T04:32:03;101009.94;;;12.22;100.00
28448;BME280;15675;52.870;-1.416;2023-05-01T04:34:28;101012.53;;;12.16;100.00
28448;BME280;15675;52.870;-1.416;2023-05-01T04:36:54;101020.22;;;11.92;100.00
28448;BME280;15675;52.870;-1.416;2023-05-01T04:39:22;101010.75;;;11.96;100.00
28448;BME280;15675;52.870;-1.416;2023-05-01T04:41:47;101015.94;;;11.99;100.00
28448;BME280;15675;52.870;-1.416;2023-05-01T04:44:13;101019.38;;;11.92;100.00
28448;BME280;15675;52.870;-1.416;2023-05-01T04:46:39;101021.00;;;11.68;100.00
28448;BME280;15675;52.870;-1.416;2023-05-01T04:49:04;101022.66;;;11.48;100.00
28448;BME280;15675;52.870;-1.416;2023-05-01T04:51:30;101028.72;;;11.51;100.00
28448;BME280;15675;52.870;-1.416;2023-05-01T04:53:55;101021.78;;;11.44;100.00
28448;BME280;15675;52.870;-1.416;2023-05-01T04:56:21;101021.84;;;11.61;100.00
28448;BME280;15675;52.870;-1.416;2023-05-01T04:58:47;101028.81;;;11.64;100.00
28448;BME280;15675;52.870;-1.416;2023-05-01T05:01:12;101025.25;;;11.46;100.00
28448;BME280;15675;52.870;-1.416;2023-05-01T05:03:38;101036.66;;;11.79;100.00
28448;BME280;15675;52.870;-1.416;2023-05-01T05:06:03;101026.28;;;11.84;100.00
28448;BME280;15675;52.870;-1.416;2023-05-01T05:08:29;101031.41;;;11.67;100.00
28448;BME280;15675;52.870;-1.416;2023-05-01T05:10:56;101034.75;;;11.38;100.00
28448;BME280;15675;52.870;-1.416;2023-05-01T05:13:23;101039.91;;;11.30;100.00
28448;BME280;15675;52.870;-1.416;2023-05-01T05:15:48;101050.19;;;11.10;100.00
28448;BME280;15675;52.870;-1.416;2023-05-01T05:18:14;101044.31;;;11.51;100.00
28448;BME280;15675;52.870;-1.416;2023-05-01T05:20:39;101049.56;;;11.54;100.00
28448;BME280;15675;52.870;-1.416;2023-05-01T05:23:04;101045.19;;;11.47;100.00
28448;BME280;15675;52.870;-1.416;2023-05-01T05:25:30;101051.25;;;11.45;100.00
28448;BME280;15675;52.870;-1.416;2023-05-01T05:27:56;101051.25;;;11.42;100.00
28448;BME280;15675;52.870;-1.416;2023-05-01T05:30:21;101047.84;;;11.61;100.00
28448;BME280;15675;52.870;-1.416;2023-05-01T05:32:47;101053.06;;;11.64;100.00
28448;BME280;15675;52.870;-1.416;2023-05-01T05:35:12;101048.75;;;11.71;100.00
28448;BME280;15675;52.870;-1.416;2023-05-01T05:37:38;101058.38;;;11.87;100.00
28448;BME280;15675;52.870;-1.416;2023-05-01T05:40:04;101058.22;;;11.52;100.00
28448;BME280;15675;52.870;-1.416;2023-05-01T05:42:30;101057.41;;;11.65;100.00
28448;BME280;15675;52.870;-1.416;2023-05-01T05:44:55;101059.22;;;11.86;100.00
28448;BME280;15675;52.870;-1.416;2023-05-01T05:47:21;101058.31;;;11.77;100.00
28448;BME280;15675;52.870;-1.416;2023-05-01T05:49:46;101053.13;;;11.80;100.00
28448;BME280;15675;52.870;-1.416;2023-05-01T05:52:12;101056.81;;;12.34;100.00
28448;BME280;15675;52.870;-1.416;2023-05-01T05:54:38;101052.47;;;12.39;100.00
28448;BME280;15675;52.870;-1.416;2023-05-01T05:57:03;101050.72;;;12.54;100.00
28448;BME280;15675;52.870;-1.416;2023-05-01T05:59:29;101053.34;;;12.66;100.00
28448;BME280;15675;52.870;-1.416;2023-05-01T06:01:54;101045.53;;;12.82;100.00
28448;BME280;15675;52.870;-1.416;2023-05-01T06:04:20;101039.47;;;12.64;100.00
28448;BME280;15675;52.870;-1.416;2023-05-01T06:06:46;101042.03;;;12.32;100.00
28448;BME280;15675;52.870;-1.416;2023-05-01T06:09:11;101042.78;;;11.86;100.00
28448;BME280;15675;52.870;-1.416;2023-05-01T06:11:37;101042.84;;;12.07;100.00
28448;BME280;15675;52.870;-1.416;2023-05-01T06:14:02;101044.59;;;12.13;100.00
28448;BME280;15675;52.870;-1.416;2023-05-01T06:16:28;101046.31;;;11.96;100.00
28448;BME280;15675;52.870;-1.416;2023-05-01T06:18:53;101049.75;;;11.99;100.00
28448;BME280;15675;52.870;-1.416;2023-05-01T06:21:19;101052.28;;;11.85;100.00
28448;BME280;15675;52.870;-1.416;2023-05-01T06:23:45;101052.44;;;12.22;100.00
28448;BME280;15675;52.870;-1.416;2023-05-01T06:26:10;101052.44;;;12.44;100.00
28448;BME280;15675;52.870;-1.416;2023-05-01T06:28:37;101057.66;;;12.35;100.00
28448;BME280;15675;52.870;-1.416;2023-05-01T06:31:02;101054.19;;;12.45;100.00
28448;BME280;15675;52.870;-1.416;2023-05-01T06:33:28;101051.63;;;12.54;100.00
28448;BME280;15675;52.870;-1.416;2023-05-01T06:35:54;101050.75;;;12.69;100.00
28448;BME280;15675;52.870;-1.416;2023-05-01T06:38:20;101057.66;;;12.38;100.00
28448;BME280;15675;52.870;-1.416;2023-05-01T06:40:47;101062.88;;;12.38;100.00
28448;BME280;15675;52.870;-1.416;2023-05-01T06:43:13;101066.34;;;12.41;100.00
28448;BME280;15675;52.870;-1.416;2023-05-01T06:45:39;101064.66;;;12.73;100.00
28448;BME280;15675;52.870;-1.416;2023-05-01T06:48:06;101074.13;;;12.26;100.00
28448;BME280;15675;52.870;-1.416;2023-05-01T06:50:31;101070.63;;;12.24;100.00
28448;BME280;15675;52.870;-1.416;2023-05-01T06:52:57;101075.84;;;12.21;100.00
28448;BME280;15675;52.870;-1.416;2023-05-01T06:55:25;101072.34;;;12.06;100.00
28448;BME280;15675;52.870;-1.416;2023-05-01T06:57:51;101077.63;;;12.40;100.00
28448;BME280;15675;52.870;-1.416;2023-05-01T07:00:17;101075.91;;;12.49;100.00
28448;BME280;15675;52.870;-1.416;2023-05-01T07:02:45;101077.69;;;12.70;100.00
28448;BME280;15675;52.870;-1.416;2023-05-01T07:05:11;101075.06;;;12.73;100.00
28448;BME280;15675;52.870;-1.416;2023-05-01T07:07:37;101082.88;;;12.90;100.00
28448;BME280;15675;52.870;-1.416;2023-05-01T07:10:02;101087.19;;;13.11;100.00
28448;BME280;15675;52.870;-1.416;2023-05-01T07:12:28;101080.25;;;13.11;100.00
28448;BME280;15675;52.870;-1.416;2023-05-01T07:14:54;101081.13;;;13.10;100.00
28448;BME280;15675;52.870;-1.416;2023-05-01T07:17:21;101080.25;;;13.18;100.00
28448;BME280;15675;52.870;-1.416;2023-05-01T07:19:47;101089.81;;;12.71;100.00
28448;BME280;15675;52.870;-1.416;2023-05-01T07:22:14;101084.63;;;13.14;100.00
28448;BME280;15675;52.870;-1.416;2023-05-01T07:24:40;101084.63;;;12.82;100.00
28448;BME280;15675;52.870;-1.416;2023-05-01T07:27:05;101090.69;;;12.79;100.00
28448;BME280;15675;52.870;-1.416;2023-05-01T07:29:31;101093.31;;;12.74;100.00
28448;BME280;15675;52.870;-1.416;2023-05-01T07:31:56;101100.22;;;12.71;100.00
28448;BME280;15675;52.870;-1.416;2023-05-01T07:34:22;101095.91;;;12.71;100.00
28448;BME280;15675;52.870;-1.416;2023-05-01T07:36:47;101095.03;;;13.06;100.00
28448;BME280;15675;52.870;-1.416;2023-05-01T07:39:13;101092.41;;;13.31;100.00
28448;BME280;15675;52.870;-1.416;2023-05-01T07:41:39;101095.91;;;12.82;100.00
28448;BME280;15675;52.870;-1.416;2023-05-01T07:44:04;101101.09;;;13.16;100.00
28448;BME280;15675;52.870;-1.416;2023-05-01T07:46:30;101097.63;;;13.25;100.00
28448;BME280;15675;52.870;-1.416;2023-05-01T07:48:55;101105.41;;;13.28;100.00
28448;BME280;15675;52.870;-1.416;2023-05-01T07:51:21;101110.66;;;12.63;100.00
28448;BME280;15675;52.870;-1.416;2023-05-01T07:53:48;101115.03;;;12.83;100.00
28448;BME280;15675;52.870;-1.416;2023-05-01T07:56:13;101110.66;;;13.03;100.00
28448;BME280;15675;52.870;-1.416;2023-05-01T07:58:39;101108.03;;;13.43;100.00
28448;BME280;15675;52.870;-1.416;2023-05-01T08:01:06;101111.53;;;13.13;100.00
28448;BME280;15675;52.870;-1.416;2023-05-01T08:03:33;101112.38;;;13.00;100.00
28448;BME280;15675;52.870;-1.416;2023-05-01T08:05:59;101121.97;;;13.11;100.00
28448;BME280;15675;52.870;-1.416;2023-05-01T08:08:24;101119.34;;;13.15;100.00
28448;BME280;15675;52.870;-1.416;2023-05-01T08:10:51;101119.31;;;13.24;100.00
28448;BME280;15675;52.870;-1.416;2023-05-01T08:13:17;101121.94;;;13.05;100.00
28448;BME280;15675;52.870;-1.416;2023-05-01T08:15:45;101121.97;;;12.93;100.00
28448;BME280;15675;52.870;-1.416;2023-05-01T08:18:11;101126.31;;;13.19;100.00
28448;BME280;15675;52.870;-1.416;2023-05-01T08:20:36;101126.31;;;13.31;100.00
28448;BME280;15675;52.870;-1.416;2023-05-01T08:23:02;101120.25;;;13.37;100.00
28448;BME280;15675;52.870;-1.416;2023-05-01T08:25:28;101121.06;;;13.29;100.00
28448;BME280;15675;52.870;-1.416;2023-05-01T08:27:54;101124.56;;;13.47;100.00
28448;BME280;15675;52.870;-1.416;2023-05-01T08:30:19;101125.41;;;13.58;100.00
28448;BME280;15675;52.870;-1.416;2023-05-01T08:32:45;101129.66;;;13.90;100.00
28448;BME280;15675;52.870;-1.416;2023-05-01T08:35:11;101124.44;;;13.98;100.00
28448;BME280;15675;52.870;-1.416;2023-05-01T08:37:36;101127.09;;;13.75;100.00
28448;BME280;15675;52.870;-1.416;2023-05-01T08:40:03;101126.19;;;13.87;100.00
28448;BME280;15675;52.870;-1.416;2023-05-01T08:42:35;101136.63;;;13.90;100.00
28448;BME280;15675;52.870;-1.416;2023-05-01T08:45:07;101133.97;;;14.01;100.00
28448;BME280;15675;52.870;-1.416;2023-05-01T08:47:35;101131.28;;;14.14;100.00
28448;BME280;15675;52.870;-1.416;2023-05-01T08:50:03;101132.91;;;14.40;100.00
28448;BME280;15675;52.870;-1.416;2023-05-01T08:52:29;101131.38;;;13.94;100.00
28448;BME280;15675;52.870;-1.416;2023-05-01T08:54:56;101134.81;;;14.07;100.00
28448;BME280;15675;52.870;-1.416;2023-05-01T08:57:24;101130.59;;;13.75;100.00
28448;BME280;15675;52.870;-1.416;2023-05-01T08:59:52;101130.44;;;14.14;100.00
28448;BME280;15675;52.870;-1.416;2023-05-01T09:02:20;101132.22;;;14.06;100.00
28448;BME280;15675;52.870;-1.416;2023-05-01T09:04:47;101134.63;;;14.44;100.00
28448;BME280;15675;52.870;-1.416;2023-05-01T09:07:16;101140.75;;;14.37;100.00
28448;BME280;15675;52.870;-1.416;2023-05-01T09:09:42;101145.19;;;14.23;100.00
28448;BME280;15675;52.870;-1.416;2023-05-01T09:14:38;101146.97;;;14.13;100.00
28448;BME280;15675;52.870;-1.416;2023-05-01T09:17:04;101145.97;;;14.40;100.00
28448;BME280;15675;52.870;-1.416;2023-05-01T09:19:29;101154.59;;;14.62;100.00
28448;BME280;15675;52.870;-1.416;2023-05-01T09:21:55;101152.84;;;14.63;100.00
28448;BME280;15675;52.870;-1.416;2023-05-01T09:24:23;101147.50;;;14.81;100.00
28448;BME280;15675;52.870;-1.416;2023-05-01T09:26:50;101149.22;;;14.82;100.00
28448;BME280;15675;52.870;-1.416;2023-05-01T09:29:46;101136.91;;;14.98;100.00
28448;BME280;15675;52.870;-1.416;2023-05-01T09:32:25;101138.69;;;14.96;100.00
28448;BME280;15675;52.870;-1.416;2023-05-01T09:35:07;101156.22;;;14.77;100.00
28448;BME280;15675;52.870;-1.416;2023-05-01T09:37:34;101144.97;;;14.67;100.00
28448;BME280;15675;52.870;-1.416;2023-05-01T09:42:29;101147.28;;;15.06;100.00
28448;BME280;15675;52.870;-1.416;2023-05-01T09:44:57;101150.94;;;14.88;100.00
28448;BME280;15675;52.870;-1.416;2023-05-01T09:47:22;101139.13;;;15.42;100.00
28448;BME280;15675;52.870;-1.416;2023-05-01T09:49:48;101146.34;;;15.13;100.00
28448;BME280;15675;52.870;-1.416;2023-05-01T09:52:14;101140.81;;;15.47;100.00
28448;BME280;15675;52.870;-1.416;2023-05-01T09:54:40;101148.34;;;14.87;100.00
28448;BME280;15675;52.870;-1.416;2023-05-01T09:57:05;101153.53;;;14.88;100.00
28448;BME280;15675;52.870;-1.416;2023-05-01T09:59:31;101151.59;;;15.16;100.00
28448;BME280;15675;52.870;-1.416;2023-05-01T10:01:59;101153.19;;;15.30;100.00
28448;BME280;15675;52.870;-1.416;2023-05-01T10:04:32;101150.00;;;14.97;100.00
28448;BME280;15675;52.870;-1.416;2023-05-01T10:07:12;101145.44;;;15.17;100.00
28448;BME280;15675;52.870;-1.416;2023-05-01T10:09:37;101149.75;;;15.28;100.00
28448;BME280;15675;52.870;-1.416;2023-05-01T10:12:03;101151.78;;;14.90;100.00
28448;BME280;15675;52.870;-1.416;2023-05-01T10:14:29;101146.97;;;15.42;100.00
28448;BME280;15675;52.870;-1.416;2023-05-01T10:16:58;101139.84;;;15.61;100.00
28448;BME280;15675;52.870;-1.416;2023-05-01T10:19:23;101142.97;;;15.05;100.00
28448;BME280;15675;52.870;-1.416;2023-05-01T10:21:49;101152.75;;;14.78;100.00
28448;BME280;15675;52.870;-1.416;2023-05-01T10:24:15;101148.34;;;14.82;100.00
28448;BME280;15675;52.870;-1.416;2023-05-01T10:26:41;101146.22;;;15.29;100.00
28448;BME280;15675;52.870;-1.416;2023-05-01T10:29:11;101148.63;;;15.50;99.36
28448;BME280;15675;52.870;-1.416;2023-05-01T10:31:37;101148.97;;;15.13;97.68
28448;BME280;15675;52.870;-1.416;2023-05-01T10:34:03;101141.38;;;15.77;97.16
28448;BME280;15675;52.870;-1.416;2023-05-01T10:36:44;101144.41;;;15.37;96.69
28448;BME280;15675;52.870;-1.416;2023-05-01T10:39:31;101151.50;;;15.26;97.38
28448;BME280;15675;52.870;-1.416;2023-05-01T10:44:23;101152.50;;;15.08;96.63
28448;BME280;15675;52.870;-1.416;2023-05-01T10:46:49;101160.38;;;15.03;98.26
28448;BME280;15675;52.870;-1.416;2023-05-01T10:49:15;101161.28;;;15.04;96.27
28448;BME280;15675;52.870;-1.416;2023-05-01T10:54:24;101178.72;;;15.00;97.26
28448;BME280;15675;52.870;-1.416;2023-05-01T10:56:52;101176.13;;;14.97;99.57
28448;BME280;15675;52.870;-1.416;2023-05-01T10:59:18;101169.69;;;15.40;98.19
28448;BME280;15675;52.870;-1.416;2023-05-01T11:01:45;101184.94;;;14.85;97.22
28448;BME280;15675;52.870;-1.416;2023-05-01T11:09:43;101189.31;;;14.80;97.38
28448;BME280;15675;52.870;-1.416;2023-05-01T11:12:11;101186.75;;;14.69;99.99
28448;BME280;15675;52.870;-1.416;2023-05-01T11:22:33;101185.56;;;15.16;97.72
28448;BME280;15675;52.870;-1.416;2023-05-01T11:24:59;101190.66;;;15.35;94.09
28448;BME280;15675;52.870;-1.416;2023-05-01T11:27:26;101188.75;;;15.51;89.56
28448;BME280;15675;52.870;-1.416;2023-05-01T11:29:52;101181.72;;;15.54;87.15
28448;BME280;15675;52.870;-1.416;2023-05-01T11:32:22;101195.53;;;15.74;86.77
28448;BME280;15675;52.870;-1.416;2023-05-01T11:34:49;101181.72;;;15.58;85.03
28448;BME280;15675;52.870;-1.416;2023-05-01T11:37:15;101182.56;;;15.60;83.45
28448;BME280;15675;52.870;-1.416;2023-05-01T11:39:51;101190.94;;;15.96;84.87
28448;BME280;15675;52.870;-1.416;2023-05-01T11:42:19;101185.84;;;15.83;83.84
28448;BME280;15675;52.870;-1.416;2023-05-01T11:45:06;101184.06;;;15.85;81.84
28448;BME280;15675;52.870;-1.416;2023-05-01T11:47:32;101190.16;;;15.89;82.63
28448;BME280;15675;52.870;-1.416;2023-05-01T11:49:59;101185.31;;;16.30;86.84
28448;BME280;15675;52.870;-1.416;2023-05-01T11:52:27;101198.75;;;16.00;85.01
28448;BME280;15675;52.870;-1.416;2023-05-01T11:54:53;101190.94;;;15.96;88.93
28448;BME280;15675;52.870;-1.416;2023-05-01T11:57:18;101186.22;;;15.42;90.74
28448;BME280;15675;52.870;-1.416;2023-05-01T11:59:47;101211.72;;;15.12;92.62
28448;BME280;15675;52.870;-1.416;2023-05-01T12:02:19;101203.44;;;15.66;92.55
28448;BME280;15675;52.870;-1.416;2023-05-01T12:04:45;101212.50;;;15.28;89.17
28448;BME280;15675;52.870;-1.416;2023-05-01T12:07:21;101211.06;;;14.80;82.20
28448;BME280;15675;52.870;-1.416;2023-05-01T12:09:49;101209.25;;;14.98;81.09
28448;BME280;15675;52.870;-1.416;2023-05-01T12:12:14;101213.56;;;14.97;82.29
28448;BME280;15675;52.870;-1.416;2023-05-01T12:14:41;101214.47;;;14.92;84.08
28448;BME280;15675;52.870;-1.416;2023-05-01T12:17:07;101215.34;;;14.97;85.82
28448;BME280;15675;52.870;-1.416;2023-05-01T12:19:45;101208.00;;;15.44;87.92
28448;BME280;15675;52.870;-1.416;2023-05-01T12:22:13;101192.75;;;15.87;87.19
28448;BME280;15675;52.870;-1.416;2023-05-01T12:24:47;101197.44;;;16.37;88.24
28448;BME280;15675;52.870;-1.416;2023-05-01T12:27:13;101193.28;;;16.20;86.81
28448;BME280;15675;52.870;-1.416;2023-05-01T12:29:39;101200.59;;;15.91;86.67
28448;BME280;15675;52.870;-1.416;2023-05-01T12:32:06;101201.16;;;16.17;88.83
28448;BME280;15675;52.870;-1.416;2023-05-01T12:34:32;101202.06;;;16.16;88.93
28448;BME280;15675;52.870;-1.416;2023-05-01T12:36:58;101201.19;;;16.14;89.17
28448;BME280;15675;52.870;-1.416;2023-05-01T12:39:24;101206.03;;;16.48;90.47
28448;BME280;15675;52.870;-1.416;2023-05-01T12:41:52;101200.53;;;16.67;91.46
28448;BME280;15675;52.870;-1.416;2023-05-01T12:44:26;101199.28;;;16.27;90.26
28448;BME280;15675;52.870;-1.416;2023-05-01T12:49:19;101215.00;;;16.29;86.78
28448;BME280;15675;52.870;-1.416;2023-05-01T12:51:48;101215.28;;;16.04;87.44
28448;BME280;15675;52.870;-1.416;2023-05-01T12:54:22;101216.00;;;16.18;86.86
28448;BME280;15675;52.870;-1.416;2023-05-01T12:56:49;101221.19;;;16.21;88.56
28448;BME280;15675;52.870;-1.416;2023-05-01T13:01:47;101225.00;;;15.93;87.27
28448;BME280;15675;52.870;-1.416;2023-05-01T13:04:20;101218.03;;;15.95;88.23
28448;BME280;15675;52.870;-1.416;2023-05-01T13:06:46;101242.50;;;15.86;84.15
28448;BME280;15675;52.870;-1.416;2023-05-01T13:09:12;101233.00;;;15.79;80.35
28448;BME280;15675;52.870;-1.416;2023-05-01T13:11:39;101238.38;;;15.60;80.33
28448;BME280;15675;52.870;-1.416;2023-05-01T13:14:06;101241.06;;;15.51;80.07
28448;BME280;15675;52.870;-1.416;2023-05-01T13:16:33;101244.50;;;15.59;80.41